Time;durP1;ratioP1;P1;durP2;ratioP2;P2;SDS_P1;SDS_P2;PMS_P1;PMS_P2;Temp;Humidity;BMP_temperature;BMP_pressure;BME280_temperature;BME280_humidity;BME280_pressure;Samples;Min_cycle;Max_cycle;Signal;HPM_P1;HPM_P2
2021/12/13 00:00:19;;;;;;;4.90;2.20;;;;;;;;;;6245249;22;20197;-94
2021/12/13 00:02:50;;;;;;;2.33;2.10;;;;;;;;;;6245925;22;20177;-94
2021/12/13 00:05:21;;;;;;;3.23;2.00;;;;;;;;;;6246005;22;20182;-94
2021/12/13 00:07:56;;;;;;;2.77;2.13;;;;;;;;;;6244063;22;20161;-93
2021/12/13 00:10:24;;;;;;;2.37;2.10;;;;;;;;;;6249590;22;20242;-94
2021/12/13 00:12:58;;;;;;;3.40;2.47;;;;;;;;;;6246172;22;20201;-93
2021/12/13 00:15:37;;;;;;;;;;;;;;;;;;;;;
2021/12/13 00:20:50;;;;;;;3.87;2.23;;;;;;;;;;6244235;22;20201;-92
2021/12/13 00:23:20;;;;;;;3.10;1.93;;;;;;;;;;6244878;22;20235;-92
2021/12/13 00:25:49;;;;;;;3.60;2.30;;;;;;;;;;6245309;22;20181;-92
2021/12/13 00:28:18;;;;;;;3.63;2.33;;;;;;;;;;6245188;22;20181;-92
2021/12/13 00:30:54;;;;;;;2.50;2.30;;;;;;;;;;6244925;22;20197;-92
2021/12/13 00:33:29;;;;;;;3.03;2.13;;;;;;;;;;6245200;22;20226;-92
2021/12/13 00:35:59;;;;;;;2.40;2.20;;;;;;;;;;6245142;22;20165;-92
2021/12/13 00:38:30;;;;;;;3.80;2.50;;;;;;;;;;6245637;22;20484;-92
2021/12/13 00:41:02;;;;;;;3.80;2.50;;;;;;;;;;6245046;22;20228;-92
2021/12/13 00:43:31;;;;;;;2.50;2.10;;;;;;;;;;6245367;22;20548;-92
2021/12/13 00:46:01;;;;;;;3.13;2.40;;;;;;;;;;6245150;22;20181;-92
2021/12/13 00:48:30;;;;;;;3.23;2.07;;;;;;;;;;6245168;22;20173;-91
2021/12/13 00:51:01;;;;;;;2.83;2.13;;;;;;;;;;6245086;22;20201;-92
2021/12/13 00:53:34;;;;;;;3.77;2.40;;;;;;;;;;6244981;22;20560;-92
2021/12/13 00:56:01;;;;;;;2.73;2.10;;;;;;;;;;6244660;22;20177;-92
2021/12/13 00:58:29;;;;;;;3.13;2.30;;;;;;;;;;6244970;22;20184;-92
2021/12/13 01:00:57;;;;;;;7.07;2.87;;;;;;;;;;6244825;22;20500;-92
2021/12/13 01:03:28;;;;;;;4.83;2.73;;;;;;;;;;6245082;22;20178;-92
2021/12/13 01:06:13;;;;;;;4.60;3.10;;;;;;;;;;6243756;22;20176;-91
2021/12/13 01:08:58;;;;;;;2.87;2.43;;;;;;;;;;6244742;22;20165;-92
2021/12/13 01:11:36;;;;;;;3.10;2.53;;;;;;;;;;6244763;22;20201;-92
2021/12/13 01:14:32;;;;;;;3.23;2.57;;;;;;;;;;6244650;22;20173;-92
2021/12/13 01:17:09;;;;;;;6.03;2.60;;;;;;;;;;6217357;22;20243;-92
2021/12/13 01:19:48;;;;;;;5.30;2.90;;;;;;;;;;6244587;22;20169;-92
2021/12/13 01:22:37;;;;;;;2.87;2.53;;;;;;;;;;6244533;22;20224;-92
2021/12/13 01:25:21;;;;;;;2.40;2.20;;;;;;;;;;6243707;22;20203;-92
2021/12/13 01:27:53;;;;;;;3.30;2.77;;;;;;;;;;6244188;22;20181;-92
2021/12/13 01:30:22;;;;;;;3.13;2.47;;;;;;;;;;6244881;22;20695;-92
2021/12/13 01:32:51;;;;;;;4.70;3.00;;;;;;;;;;6244110;22;20181;-93
2021/12/13 01:35:19;;;;;;;3.17;2.63;;;;;;;;;;6244349;22;20914;-91
2021/12/13 01:37:52;;;;;;;3.60;2.97;;;;;;;;;;6244256;22;20235;-94
2021/12/13 01:40:21;;;;;;;3.37;2.83;;;;;;;;;;6244917;22;20216;-92
2021/12/13 01:42:54;;;;;;;3.73;3.30;;;;;;;;;;6244842;22;20180;-92
2021/12/13 01:45:23;;;;;;;5.30;3.37;;;;;;;;;;6246520;22;20177;-92
2021/12/13 01:47:51;;;;;;;4.17;3.20;;;;;;;;;;6246395;22;20173;-91
2021/12/13 01:50:20;;;;;;;5.00;3.33;;;;;;;;;;6246758;22;20197;-92
2021/12/13 01:52:49;;;;;;;4.13;3.20;;;;;;;;;;6245790;22;20238;-93
2021/12/13 01:55:20;;;;;;;4.73;3.83;;;;;;;;;;6246223;22;20182;-92
2021/12/13 01:57:51;;;;;;;5.53;3.63;;;;;;;;;;6246477;22;20538;-92
2021/12/13 02:00:32;;;;;;;4.67;3.20;;;;;;;;;;6244699;22;20285;-92
2021/12/13 02:03:01;;;;;;;5.40;3.70;;;;;;;;;;6245815;22;20207;-92
2021/12/13 02:05:30;;;;;;;5.40;4.20;;;;;;;;;;6245940;22;20181;-93
2021/12/13 02:07:59;;;;;;;5.27;3.67;;;;;;;;;;6245993;22;20722;-93
2021/12/13 02:10:29;;;;;;;6.27;4.30;;;;;;;;;;6246193;22;20236;-93
2021/12/13 02:13:00;;;;;;;4.83;3.70;;;;;;;;;;6245785;22;20181;-92
2021/12/13 02:18:17;;;;;;;6.33;3.67;;;;;;;;;;6245290;23;20591;-94
2021/12/13 02:20:48;;;;;;;5.00;3.77;;;;;;;;;;6246014;22;20247;-92
2021/12/13 02:23:16;;;;;;;6.90;4.20;;;;;;;;;;6246361;22;20177;-93
2021/12/13 02:25:44;;;;;;;7.57;4.27;;;;;;;;;;6246455;22;20280;-92
2021/12/13 02:28:14;;;;;;;5.87;3.90;;;;;;;;;;6245448;22;20196;-92
2021/12/13 02:30:44;;;;;;;5.63;4.13;;;;;;;;;;6245923;22;20251;-92
2021/12/13 02:33:13;;;;;;;4.37;3.37;;;;;;;;;;6246244;22;20200;-92
2021/12/13 02:35:42;;;;;;;6.10;4.03;;;;;;;;;;6245529;22;20231;-92
2021/12/13 02:38:10;;;;;;;6.43;4.30;;;;;;;;;;6245468;22;20243;-92
2021/12/13 02:40:39;;;;;;;6.03;4.07;;;;;;;;;;6246165;22;20660;-92
2021/12/13 02:43:09;;;;;;;6.87;4.43;;;;;;;;;;6245970;22;20683;-92
2021/12/13 02:45:42;;;;;;;5.40;4.13;;;;;;;;;;6245678;22;20177;-92
2021/12/13 02:48:13;;;;;;;5.20;4.03;;;;;;;;;;6245438;22;20612;-92
2021/12/13 02:50:44;;;;;;;8.40;4.50;;;;;;;;;;6245911;22;20672;-92
2021/12/13 02:53:12;;;;;;;7.13;4.37;;;;;;;;;;6245248;22;20172;-92
2021/12/13 02:55:41;;;;;;;6.80;4.03;;;;;;;;;;6245756;22;20180;-91
2021/12/13 02:58:11;;;;;;;5.43;4.07;;;;;;;;;;6245828;22;20216;-92
2021/12/13 03:00:44;;;;;;;7.80;3.90;;;;;;;;;;6245929;22;20202;-92
2021/12/13 03:03:14;;;;;;;10.20;4.90;;;;;;;;;;6245355;22;20174;-92
2021/12/13 03:05:42;;;;;;;6.60;4.37;;;;;;;;;;6245762;22;20172;-92
2021/12/13 03:08:12;;;;;;;5.70;3.93;;;;;;;;;;6245586;22;20169;-92
2021/12/13 03:10:47;;;;;;;9.37;3.97;;;;;;;;;;6245709;22;20687;-92
2021/12/13 03:13:15;;;;;;;6.53;4.70;;;;;;;;;;6244926;22;20173;-92
2021/12/13 03:15:45;;;;;;;5.23;4.33;;;;;;;;;;6245700;22;20178;-92
2021/12/13 03:18:15;;;;;;;5.67;4.10;;;;;;;;;;6245214;22;20189;-93
2021/12/13 03:20:57;;;;;;;5.53;3.90;;;;;;;;;;6243610;22;20263;-92
2021/12/13 03:23:30;;;;;;;6.53;4.63;;;;;;;;;;6245651;22;20207;-92
2021/12/13 03:26:20;;;;;;;7.17;4.60;;;;;;;;;;6245836;22;20612;-93
2021/12/13 03:28:56;;;;;;;7.30;4.87;;;;;;;;;;6243938;22;20286;-93
2021/12/13 03:31:27;;;;;;;7.63;4.73;;;;;;;;;;6245385;22;20251;-92
2021/12/13 03:33:59;;;;;;;8.93;5.23;;;;;;;;;;6245452;22;20179;-92
2021/12/13 03:36:35;;;;;;;9.93;5.13;;;;;;;;;;6245800;22;20219;-92
2021/12/13 03:39:02;;;;;;;6.00;4.37;;;;;;;;;;6244748;22;20211;-92
2021/12/13 03:41:31;;;;;;;6.13;4.83;;;;;;;;;;6245300;22;20499;-93
2021/12/13 03:44:00;;;;;;;6.60;4.87;;;;;;;;;;6245614;22;20177;-92
2021/12/13 03:46:28;;;;;;;10.63;5.30;;;;;;;;;;6244871;22;20239;-93
2021/12/13 03:48:56;;;;;;;6.00;4.73;;;;;;;;;;6245118;22;20169;-92
2021/12/13 03:51:25;;;;;;;6.70;4.67;;;;;;;;;;6244992;22;20539;-92
2021/12/13 03:53:53;;;;;;;9.57;5.27;;;;;;;;;;6245263;22;20558;-92
2021/12/13 03:56:24;;;;;;;6.03;4.83;;;;;;;;;;6244802;22;20178;-92
2021/12/13 03:58:54;;;;;;;6.83;4.67;;;;;;;;;;6244214;22;20199;-92
2021/12/13 04:01:23;;;;;;;12.13;5.20;;;;;;;;;;6245138;22;20197;-92
2021/12/13 04:03:51;;;;;;;7.70;4.67;;;;;;;;;;6245605;22;20182;-92
2021/12/13 04:06:19;;;;;;;9.57;5.37;;;;;;;;;;6245209;22;20178;-92
2021/12/13 04:08:48;;;;;;;9.57;5.50;;;;;;;;;;6244080;22;20174;-92
2021/12/13 04:11:15;;;;;;;13.70;5.93;;;;;;;;;;6245081;22;20204;-92
2021/12/13 04:13:45;;;;;;;10.13;5.67;;;;;;;;;;6245137;22;20177;-92
2021/12/13 04:16:18;;;;;;;10.57;5.87;;;;;;;;;;6244001;22;20632;-92
2021/12/13 04:21:42;;;;;;;9.00;5.97;;;;;;;;;;6244859;22;20281;-92
2021/12/13 04:24:10;;;;;;;9.10;6.03;;;;;;;;;;6244693;22;20861;-92
2021/12/13 04:26:39;;;;;;;11.43;5.83;;;;;;;;;;6244036;22;20821;-92
2021/12/13 04:29:12;;;;;;;7.93;5.47;;;;;;;;;;6244674;22;20181;-92
2021/12/13 04:31:41;;;;;;;10.57;6.13;;;;;;;;;;6244759;22;20251;-92
2021/12/13 04:34:09;;;;;;;7.93;5.63;;;;;;;;;;6244431;22;20181;-92
2021/12/13 04:36:37;;;;;;;9.57;7.07;;;;;;;;;;6244726;22;20609;-92
2021/12/13 04:39:07;;;;;;;10.07;6.00;;;;;;;;;;6244990;22;20189;-92
2021/12/13 04:41:36;;;;;;;11.87;6.10;;;;;;;;;;6245141;22;20197;-92
2021/12/13 04:44:06;;;;;;;8.80;5.90;;;;;;;;;;6244526;22;20177;-92
2021/12/13 04:46:34;;;;;;;10.63;6.60;;;;;;;;;;6244762;22;20184;-93
2021/12/13 04:49:05;;;;;;;10.87;6.23;;;;;;;;;;6244848;22;20231;-93
2021/12/13 04:51:39;;;;;;;11.23;7.20;;;;;;;;;;6244844;22;20201;-92
2021/12/13 04:54:07;;;;;;;9.57;6.33;;;;;;;;;;6244527;22;20231;-92
2021/12/13 04:56:34;;;;;;;9.73;6.47;;;;;;;;;;6244359;22;20205;-92
2021/12/13 04:59:03;;;;;;;8.93;6.43;;;;;;;;;;6244914;23;20243;-92
2021/12/13 05:01:30;;;;;;;8.67;6.20;;;;;;;;;;6244253;22;20204;-92
2021/12/13 05:04:00;;;;;;;9.97;6.47;;;;;;;;;;6244572;22;20177;-93
2021/12/13 05:06:30;;;;;;;12.03;7.00;;;;;;;;;;6244832;22;20254;-93
2021/12/13 05:08:59;;;;;;;8.37;6.13;;;;;;;;;;6245061;22;20162;-93
2021/12/13 05:11:29;;;;;;;11.27;6.37;;;;;;;;;;6244201;22;20220;-92
2021/12/13 05:13:58;;;;;;;11.37;6.47;;;;;;;;;;6244711;22;20190;-93
2021/12/13 05:16:30;;;;;;;12.33;6.10;;;;;;;;;;6244849;22;20180;-92
2021/12/13 05:18:58;;;;;;;8.03;5.90;;;;;;;;;;6246153;22;20190;-92
2021/12/13 05:21:26;;;;;;;10.97;6.37;;;;;;;;;;6246136;22;20198;-93
2021/12/13 05:23:58;;;;;;;12.70;7.53;;;;;;;;;;6246776;22;20180;-92
2021/12/13 05:26:30;;;;;;;11.57;6.87;;;;;;;;;;6246970;22;20215;-93
2021/12/13 05:29:00;;;;;;;12.30;7.50;;;;;;;;;;6245569;22;20235;-92
2021/12/13 05:31:28;;;;;;;12.20;7.87;;;;;;;;;;6246497;22;20204;-93
2021/12/13 05:33:57;;;;;;;14.87;7.60;;;;;;;;;;6246730;22;20719;-92
2021/12/13 05:36:25;;;;;;;10.93;6.60;;;;;;;;;;6245403;22;20479;-93
2021/12/13 05:39:02;;;;;;;9.67;6.40;;;;;;;;;;6245692;22;20189;-93
2021/12/13 05:41:30;;;;;;;9.67;6.77;;;;;;;;;;6246357;22;20251;-92
2021/12/13 05:43:59;;;;;;;12.67;7.13;;;;;;;;;;6246779;22;20177;-92
2021/12/13 05:46:33;;;;;;;11.73;6.53;;;;;;;;;;6245682;22;20246;-93
2021/12/13 05:49:01;;;;;;;9.90;6.27;;;;;;;;;;6246196;22;20177;-92
2021/12/13 05:51:30;;;;;;;11.43;6.87;;;;;;;;;;6246345;22;20204;-92
2021/12/13 05:54:02;;;;;;;12.10;7.60;;;;;;;;;;6246507;22;20181;-93
2021/12/13 05:56:34;;;;;;;12.40;7.43;;;;;;;;;;6245579;22;20249;-93
2021/12/13 05:59:10;;;;;;;11.20;7.13;;;;;;;;;;6245841;22;20247;-92
2021/12/13 06:01:41;;;;;;;13.57;8.30;;;;;;;;;;6246543;22;20196;-92
2021/12/13 06:04:14;;;;;;;11.53;7.67;;;;;;;;;;6245107;22;20383;-92
2021/12/13 06:06:46;;;;;;;10.00;6.80;;;;;;;;;;6246169;22;20504;-94
2021/12/13 06:09:35;;;;;;;12.83;7.87;;;;;;;;;;6246360;22;20216;-93
2021/12/13 06:12:05;;;;;;;13.33;8.30;;;;;;;;;;6245353;22;20173;-92
2021/12/13 06:14:32;;;;;;;11.50;7.57;;;;;;;;;;6245953;22;20181;-92
2021/12/13 06:17:06;;;;;;;13.30;8.23;;;;;;;;;;6246205;22;20251;-92
2021/12/13 06:19:35;;;;;;;13.63;7.63;;;;;;;;;;6246301;22;20212;-92
2021/12/13 06:22:05;;;;;;;14.73;8.23;;;;;;;;;;6245498;22;20177;-92
2021/12/13 06:24:36;;;;;;;12.17;7.20;;;;;;;;;;6254250;22;20604;-93
2021/12/13 06:27:08;;;;;;;15.43;8.73;;;;;;;;;;6245651;22;20166;-92
2021/12/13 06:29:49;;;;;;;13.63;7.07;;;;;;;;;;6246169;22;20275;-92
2021/12/13 06:32:29;;;;;;;13.70;8.03;;;;;;;;;;6245398;22;20177;-92
2021/12/13 06:34:57;;;;;;;13.67;8.13;;;;;;;;;;6245957;22;20169;-92
2021/12/13 06:37:26;;;;;;;16.77;8.83;;;;;;;;;;6246172;22;20543;-92
2021/12/13 06:40:10;;;;;;;14.60;8.43;;;;;;;;;;6244869;22;20228;-92
2021/12/13 06:42:37;;;;;;;15.13;7.93;;;;;;;;;;6246338;22;20223;-92
2021/12/13 06:45:18;;;;;;;13.00;7.73;;;;;;;;;;6246038;22;20174;-93
2021/12/13 06:47:48;;;;;;;14.77;7.83;;;;;;;;;;6245244;22;20177;-92
2021/12/13 06:50:23;;;;;;;14.00;8.30;;;;;;;;;;6249212;22;20244;-93
2021/12/13 06:52:50;;;;;;;14.10;7.73;;;;;;;;;;6246341;22;20184;-92
2021/12/13 06:55:20;;;;;;;12.30;7.37;;;;;;;;;;6245193;22;20231;-93
2021/12/13 06:57:49;;;;;;;15.67;9.50;;;;;;;;;;6245516;22;20177;-93
2021/12/13 07:00:26;;;;;;;11.97;7.43;;;;;;;;;;6245742;22;20193;-92
2021/12/13 07:02:55;;;;;;;13.07;8.33;;;;;;;;;;6246004;22;20189;-92
2021/12/13 07:05:23;;;;;;;18.17;9.27;;;;;;;;;;6245151;22;20177;-92
2021/12/13 07:07:52;;;;;;;13.43;7.87;;;;;;;;;;6245260;22;20177;-93
2021/12/13 07:10:22;;;;;;;16.53;7.67;;;;;;;;;;6245782;22;20193;-92
2021/12/13 07:12:51;;;;;;;14.67;7.90;;;;;;;;;;6245213;22;20169;-92
2021/12/13 07:15:33;;;;;;;12.90;7.80;;;;;;;;;;6250833;22;20177;-93
2021/12/13 07:18:02;;;;;;;14.33;7.67;;;;;;;;;;6245669;22;20173;-93
2021/12/13 07:20:36;;;;;;;14.30;7.70;;;;;;;;;;6245852;22;20193;-93
2021/12/13 07:23:04;;;;;;;14.30;7.90;;;;;;;;;;6245088;22;20177;-92
2021/12/13 07:25:38;;;;;;;14.73;8.23;;;;;;;;;;6245617;22;20260;-93
2021/12/13 07:28:06;;;;;;;14.90;9.07;;;;;;;;;;6245637;22;20231;-93
2021/12/13 07:30:35;;;;;;;14.83;8.47;;;;;;;;;;6245589;22;20197;-92
2021/12/13 07:33:05;;;;;;;17.00;9.03;;;;;;;;;;6245894;22;20204;-92
2021/12/13 07:35:33;;;;;;;16.90;9.90;;;;;;;;;;6245833;22;20169;-93
2021/12/13 07:38:02;;;;;;;16.53;9.83;;;;;;;;;;6245889;22;20182;-93
2021/12/13 07:40:35;;;;;;;16.67;9.33;;;;;;;;;;6245542;22;20197;-93
2021/12/13 07:43:08;;;;;;;20.33;9.70;;;;;;;;;;6245815;22;20181;-93
2021/12/13 07:45:36;;;;;;;17.50;9.13;;;;;;;;;;6246329;22;20227;-93
2021/12/13 07:48:06;;;;;;;20.70;9.40;;;;;;;;;;6246032;22;20177;-92
2021/12/13 07:50:35;;;;;;;19.10;10.13;;;;;;;;;;6249868;22;20232;-93
2021/12/13 07:53:08;;;;;;;16.70;8.83;;;;;;;;;;6267104;22;20212;-92
2021/12/13 07:55:35;;;;;;;15.10;9.53;;;;;;;;;;6265666;22;20199;-94
2021/12/13 07:58:18;;;;;;;19.67;9.23;;;;;;;;;;6245584;22;20694;-93
2021/12/13 08:00:47;;;;;;;16.47;9.30;;;;;;;;;;6254337;22;20193;-93
2021/12/13 08:03:16;;;;;;;19.57;9.37;;;;;;;;;;6244938;22;20196;-92
2021/12/13 08:05:45;;;;;;;14.73;9.23;;;;;;;;;;6245589;22;20177;-92
2021/12/13 08:08:17;;;;;;;17.03;8.57;;;;;;;;;;6245221;22;20243;-93
2021/12/13 08:10:45;;;;;;;17.43;10.10;;;;;;;;;;6245349;22;20197;-92
2021/12/13 08:13:17;;;;;;;18.87;10.10;;;;;;;;;;6257157;22;20181;-93
2021/12/13 08:15:48;;;;;;;17.87;9.80;;;;;;;;;;6245870;22;20181;-92
2021/12/13 08:18:23;;;;;;;19.80;9.80;;;;;;;;;;6245658;22;20204;-92
2021/12/13 08:20:52;;;;;;;17.50;9.57;;;;;;;;;;6245712;22;20259;-92
2021/12/13 08:23:21;;;;;;;16.67;8.67;;;;;;;;;;6245801;22;20238;-92
2021/12/13 08:25:51;;;;;;;16.40;9.10;;;;;;;;;;6245754;22;20174;-92
2021/12/13 08:28:20;;;;;;;16.53;8.53;;;;;;;;;;6245271;22;20192;-92
2021/12/13 08:30:49;;;;;;;13.67;8.43;;;;;;;;;;6252745;22;20198;-92
2021/12/13 08:33:19;;;;;;;16.07;9.30;;;;;;;;;;6257784;22;20196;-93
2021/12/13 08:35:48;;;;;;;16.40;9.17;;;;;;;;;;6262002;22;20191;-92
2021/12/13 08:38:25;;;;;;;20.10;10.13;;;;;;;;;;6262251;22;20184;-95
2021/12/13 08:40:53;;;;;;;26.53;12.57;;;;;;;;;;6260139;22;20189;-92
2021/12/13 08:43:33;;;;;;;21.60;11.77;;;;;;;;;;6262598;22;20177;-92
2021/12/13 08:46:03;;;;;;;42.63;23.83;;;;;;;;;;6261856;22;20180;-94
2021/12/13 08:48:30;;;;;;;31.53;20.40;;;;;;;;;;6263517;22;20169;-92
2021/12/13 08:51:00;;;;;;;17.37;10.53;;;;;;;;;;6260898;22;20204;-93
2021/12/13 08:53:30;;;;;;;17.97;10.30;;;;;;;;;;6264521;22;20178;-92
2021/12/13 08:55:59;;;;;;;16.20;9.80;;;;;;;;;;6263400;22;20177;-92
2021/12/13 08:58:27;;;;;;;16.97;9.13;;;;;;;;;;6262953;22;20177;-93
2021/12/13 09:00:56;;;;;;;16.73;8.93;;;;;;;;;;6265643;22;20208;-92
2021/12/13 09:03:44;;;;;;;17.27;9.67;;;;;;;;;;6265259;22;20209;-91
2021/12/13 09:06:29;;;;;;;15.50;9.63;;;;;;;;;;6251763;22;20247;-92
2021/12/13 09:09:03;;;;;;;18.07;8.70;;;;;;;;;;6264986;22;20169;-92
2021/12/13 09:11:34;;;;;;;14.20;8.13;;;;;;;;;;6263630;22;20197;-94
2021/12/13 09:14:06;;;;;;;18.03;9.17;;;;;;;;;;6263560;22;20166;-91
2021/12/13 09:16:43;;;;;;;15.63;8.87;;;;;;;;;;6262959;22;20169;-95
2021/12/13 09:19:12;;;;;;;11.80;7.73;;;;;;;;;;6262955;22;20192;-94
2021/12/13 09:22:00;;;;;;;16.63;8.67;;;;;;;;;;6264114;22;20201;-95
2021/12/13 09:24:31;;;;;;;14.77;8.57;;;;;;;;;;6252136;22;20177;-94
2021/12/13 09:27:07;;;;;;;17.77;8.33;;;;;;;;;;6264382;22;20220;-93
2021/12/13 09:29:46;;;;;;;14.07;7.90;;;;;;;;;;6263737;22;20173;-92
2021/12/13 09:32:14;;;;;;;12.90;7.73;;;;;;;;;;6262401;22;20442;-95
2021/12/13 09:34:41;;;;;;;14.70;8.37;;;;;;;;;;6261777;22;20177;-93
2021/12/13 09:37:09;;;;;;;15.47;8.53;;;;;;;;;;6261459;22;20234;-91
2021/12/13 09:39:38;;;;;;;13.97;7.63;;;;;;;;;;6260605;22;20193;-94
2021/12/13 09:42:08;;;;;;;14.97;7.93;;;;;;;;;;6262774;22;20177;-93
2021/12/13 09:44:44;;;;;;;13.33;7.60;;;;;;;;;;6263889;22;20170;-93
2021/12/13 09:47:12;;;;;;;15.80;7.20;;;;;;;;;;6263546;22;20195;-92
2021/12/13 09:49:42;;;;;;;10.23;7.10;;;;;;;;;;6264463;22;20390;-94
2021/12/13 09:52:11;;;;;;;12.43;7.57;;;;;;;;;;6268569;22;20174;-93
2021/12/13 09:54:42;;;;;;;14.47;7.87;;;;;;;;;;6268090;22;20181;-91
2021/12/13 09:57:11;;;;;;;11.13;6.70;;;;;;;;;;6264496;22;20173;-93
2021/12/13 09:59:41;;;;;;;7.97;5.60;;;;;;;;;;6261462;22;20273;-94
2021/12/13 10:02:11;;;;;;;8.47;5.27;;;;;;;;;;6264317;22;20204;-93
2021/12/13 10:04:40;;;;;;;12.27;5.73;;;;;;;;;;6264144;22;20165;-92
2021/12/13 10:07:11;;;;;;;9.03;5.50;;;;;;;;;;6266339;22;20200;-91
2021/12/13 10:09:40;;;;;;;10.03;5.83;;;;;;;;;;6260789;22;20196;-93
2021/12/13 10:12:13;;;;;;;10.17;6.00;;;;;;;;;;6258203;22;20235;-93
2021/12/13 10:14:41;;;;;;;11.23;6.40;;;;;;;;;;6261125;22;20165;-94
2021/12/13 10:17:12;;;;;;;10.73;6.50;;;;;;;;;;6263245;22;20177;-93
2021/12/13 10:19:41;;;;;;;10.53;5.90;;;;;;;;;;6261734;22;20193;-91
2021/12/13 10:22:10;;;;;;;11.60;6.37;;;;;;;;;;6261743;22;20227;-94
2021/12/13 10:24:39;;;;;;;11.07;6.23;;;;;;;;;;6261835;22;20245;-92
2021/12/13 10:27:08;;;;;;;10.67;6.67;;;;;;;;;;6260983;22;20177;-92
2021/12/13 10:29:37;;;;;;;10.63;6.07;;;;;;;;;;6260821;22;20239;-95
2021/12/13 10:32:07;;;;;;;10.83;6.10;;;;;;;;;;6261345;22;20235;-95
2021/12/13 10:34:35;;;;;;;12.73;6.07;;;;;;;;;;6259873;22;20178;-94
2021/12/13 10:37:05;;;;;;;11.20;6.53;;;;;;;;;;6260838;22;20182;-93
2021/12/13 10:39:37;;;;;;;11.63;7.47;;;;;;;;;;6259174;22;20254;-93
2021/12/13 10:42:07;;;;;;;13.73;6.93;;;;;;;;;;6261140;22;20177;-95
2021/12/13 10:44:34;;;;;;;14.70;6.77;;;;;;;;;;6260619;22;20554;-94
2021/12/13 10:47:07;;;;;;;13.07;6.50;;;;;;;;;;6261729;22;20177;-94
2021/12/13 10:49:36;;;;;;;10.40;5.93;;;;;;;;;;6259336;22;20248;-94
2021/12/13 10:52:06;;;;;;;12.13;6.90;;;;;;;;;;6260367;22;20177;-93
2021/12/13 10:54:35;;;;;;;11.30;6.73;;;;;;;;;;6260020;22;20272;-93
2021/12/13 10:57:05;;;;;;;12.97;7.07;;;;;;;;;;6260667;22;20204;-92
2021/12/13 10:59:34;;;;;;;13.87;7.57;;;;;;;;;;6258937;22;20189;-93
2021/12/13 11:02:04;;;;;;;13.47;6.87;;;;;;;;;;6259508;22;20177;-94
2021/12/13 11:04:34;;;;;;;15.27;7.10;;;;;;;;;;6259822;23;20177;-93
2021/12/13 11:07:02;;;;;;;12.30;6.63;;;;;;;;;;6258128;22;20177;-92
2021/12/13 11:09:29;;;;;;;14.63;7.57;;;;;;;;;;6256602;22;20173;-93
2021/12/13 11:11:58;;;;;;;14.77;7.40;;;;;;;;;;6258331;22;20233;-94
2021/12/13 11:14:27;;;;;;;12.47;7.17;;;;;;;;;;6259085;22;20204;-93
2021/12/13 11:16:56;;;;;;;13.23;7.17;;;;;;;;;;6246809;22;20617;-92
2021/12/13 11:19:26;;;;;;;13.87;6.90;;;;;;;;;;6249891;22;20204;-94
2021/12/13 11:22:00;;;;;;;13.30;7.37;;;;;;;;;;6259561;22;20173;-94
2021/12/13 11:24:28;;;;;;;12.77;6.73;;;;;;;;;;6254404;22;20176;-92
2021/12/13 11:26:56;;;;;;;12.00;6.77;;;;;;;;;;6247159;22;20178;-92
2021/12/13 11:29:24;;;;;;;12.33;7.00;;;;;;;;;;6245254;22;20192;-92
2021/12/13 11:32:12;;;;;;;12.13;6.97;;;;;;;;;;6245779;22;20186;-92
2021/12/13 11:34:48;;;;;;;10.93;7.10;;;;;;;;;;6245212;22;20174;-92
2021/12/13 11:37:34;;;;;;;13.80;7.53;;;;;;;;;;6245638;22;20200;-92
2021/12/13 11:40:09;;;;;;;14.37;7.93;;;;;;;;;;6245469;22;20267;-92
2021/12/13 11:42:45;;;;;;;15.83;7.87;;;;;;;;;;6245772;22;20187;-93
2021/12/13 11:45:34;;;;;;;15.93;7.77;;;;;;;;;;6245498;22;20181;-93
2021/12/13 11:48:26;;;;;;;11.60;7.10;;;;;;;;;;6245436;22;20165;-92
2021/12/13 11:51:17;;;;;;;10.10;6.37;;;;;;;;;;6245545;22;20755;-93
2021/12/13 11:54:05;;;;;;;12.47;6.93;;;;;;;;;;6215222;22;20177;-92
2021/12/13 11:56:38;;;;;;;11.30;6.73;;;;;;;;;;6244891;22;20177;-92
2021/12/13 11:59:25;;;;;;;12.87;6.87;;;;;;;;;;6247445;22;20165;-92
2021/12/13 12:02:05;;;;;;;9.27;6.17;;;;;;;;;;6251659;22;20551;-92
2021/12/13 12:05:04;;;;;;;11.37;6.90;;;;;;;;;;6247353;22;20180;-92
2021/12/13 12:07:49;;;;;;;16.63;8.93;;;;;;;;;;6245504;22;20173;-92
2021/12/13 12:10:23;;;;;;;13.23;7.17;;;;;;;;;;6185202;22;20193;-92
2021/12/13 12:13:11;;;;;;;14.20;8.43;;;;;;;;;;6245686;22;20596;-93
2021/12/13 12:15:40;;;;;;;13.67;7.43;;;;;;;;;;6236392;22;20184;-92
2021/12/13 12:18:11;;;;;;;11.40;6.63;;;;;;;;;;6246503;22;20682;-92
2021/12/13 12:20:40;;;;;;;11.13;6.73;;;;;;;;;;6245065;22;20540;-93
2021/12/13 12:23:09;;;;;;;11.70;6.63;;;;;;;;;;6244914;22;20668;-91
2021/12/13 12:25:39;;;;;;;13.90;7.73;;;;;;;;;;6245195;22;20252;-92
2021/12/13 12:28:08;;;;;;;13.40;7.37;;;;;;;;;;6244926;22;20558;-92
2021/12/13 12:30:37;;;;;;;11.37;7.33;;;;;;;;;;6245173;22;20250;-92
2021/12/13 12:33:07;;;;;;;9.27;6.30;;;;;;;;;;6245331;22;20177;-93
2021/12/13 12:35:35;;;;;;;11.67;7.13;;;;;;;;;;6245215;22;20177;-93
2021/12/13 12:38:15;;;;;;;10.03;6.57;;;;;;;;;;6245276;22;20173;-93
2021/12/13 12:40:49;;;;;;;9.67;5.80;;;;;;;;;;6245188;22;20196;-92
2021/12/13 12:43:19;;;;;;;11.70;6.87;;;;;;;;;;6245330;22;20639;-92
2021/12/13 12:45:48;;;;;;;10.20;6.60;;;;;;;;;;6245108;22;20177;-92
2021/12/13 12:48:21;;;;;;;10.90;6.77;;;;;;;;;;6245049;22;20200;-92
2021/12/13 12:50:53;;;;;;;9.70;5.57;;;;;;;;;;6244688;22;20193;-92
2021/12/13 12:53:25;;;;;;;8.50;5.87;;;;;;;;;;6244913;22;20169;-94
2021/12/13 12:55:55;;;;;;;6.83;4.97;;;;;;;;;;6245189;22;20173;-92
2021/12/13 12:58:23;;;;;;;9.27;5.47;;;;;;;;;;6244928;22;20177;-92
2021/12/13 13:00:52;;;;;;;8.07;4.93;;;;;;;;;;6245081;22;20267;-92
2021/12/13 13:03:23;;;;;;;8.73;4.83;;;;;;;;;;6245114;22;20177;-92
2021/12/13 13:05:51;;;;;;;7.20;4.70;;;;;;;;;;6245054;22;20166;-92
2021/12/13 13:08:28;;;;;;;7.03;4.97;;;;;;;;;;6244799;22;20173;-92
2021/12/13 13:13:41;;;;;;;6.17;5.17;;;;;;;;;;6244266;22;20177;-92
2021/12/13 13:16:08;;;;;;;8.43;4.80;;;;;;;;;;6244930;22;20174;-92
2021/12/13 13:18:38;;;;;;;8.60;5.30;;;;;;;;;;6244573;22;20181;-92
2021/12/13 13:21:06;;;;;;;8.23;5.30;;;;;;;;;;6244382;22;20193;-92
2021/12/13 13:23:38;;;;;;;7.73;5.30;;;;;;;;;;6244958;22;20179;-92
2021/12/13 13:26:08;;;;;;;7.23;5.13;;;;;;;;;;6244922;22;20181;-93
2021/12/13 13:28:36;;;;;;;6.70;4.33;;;;;;;;;;6244806;22;20203;-92
2021/12/13 13:31:05;;;;;;;7.07;4.67;;;;;;;;;;6245059;22;20255;-91
2021/12/13 13:33:34;;;;;;;6.63;4.63;;;;;;;;;;6244676;22;20227;-92
2021/12/13 13:36:02;;;;;;;7.30;4.67;;;;;;;;;;6245204;22;20178;-92
2021/12/13 13:38:29;;;;;;;7.60;4.90;;;;;;;;;;6245814;22;20211;-92
2021/12/13 13:40:56;;;;;;;8.33;5.10;;;;;;;;;;6246758;22;20198;-92
2021/12/13 13:43:31;;;;;;;6.37;4.50;;;;;;;;;;6246800;22;20636;-92
2021/12/13 13:45:59;;;;;;;7.93;5.37;;;;;;;;;;6246612;22;20164;-92
2021/12/13 13:48:28;;;;;;;6.87;4.77;;;;;;;;;;6246160;22;20180;-92
2021/12/13 13:50:57;;;;;;;7.07;4.90;;;;;;;;;;6246495;22;20197;-92
2021/12/13 13:53:25;;;;;;;6.90;4.70;;;;;;;;;;6246808;22;20177;-92
2021/12/13 13:55:54;;;;;;;5.83;4.27;;;;;;;;;;6246760;22;20173;-92
2021/12/13 13:58:22;;;;;;;6.80;4.60;;;;;;;;;;6246706;22;20251;-92
2021/12/13 14:00:55;;;;;;;6.93;5.37;;;;;;;;;;6246516;22;20555;-92
2021/12/13 14:03:26;;;;;;;5.97;4.60;;;;;;;;;;6246618;22;20223;-92
2021/12/13 14:05:54;;;;;;;4.40;3.57;;;;;;;;;;6246693;22;20541;-92
2021/12/13 14:08:23;;;;;;;5.60;4.27;;;;;;;;;;6246689;22;20173;-91
2021/12/13 14:10:51;;;;;;;5.40;3.90;;;;;;;;;;6246528;22;20255;-92
2021/12/13 14:13:19;;;;;;;4.73;3.73;;;;;;;;;;6246696;22;20180;-92
2021/12/13 14:15:47;;;;;;;6.47;4.37;;;;;;;;;;6246354;22;20173;-92
2021/12/13 14:18:17;;;;;;;4.70;4.00;;;;;;;;;;6246642;22;20177;-92
2021/12/13 14:20:46;;;;;;;4.80;4.27;;;;;;;;;;6245930;22;20602;-92
2021/12/13 14:23:19;;;;;;;6.10;4.87;;;;;;;;;;6246181;22;20636;-93
2021/12/13 14:25:48;;;;;;;6.23;4.60;;;;;;;;;;6246335;22;20501;-92
2021/12/13 14:28:21;;;;;;;5.47;4.30;;;;;;;;;;6245990;22;20189;-92
2021/12/13 14:30:50;;;;;;;6.03;4.40;;;;;;;;;;6246201;22;20216;-92
2021/12/13 14:33:24;;;;;;;5.57;4.60;;;;;;;;;;6246157;22;20186;-92
2021/12/13 14:36:01;;;;;;;6.00;4.70;;;;;;;;;;6246261;22;20176;-93
2021/12/13 14:38:28;;;;;;;7.07;4.80;;;;;;;;;;6245927;22;20177;-92
2021/12/13 14:40:56;;;;;;;7.30;4.60;;;;;;;;;;6245820;22;20208;-92
2021/12/13 14:43:25;;;;;;;6.37;4.80;;;;;;;;;;6245971;22;20231;-92
2021/12/13 14:45:53;;;;;;;7.97;4.83;;;;;;;;;;6246197;22;20204;-92
2021/12/13 14:48:21;;;;;;;9.37;5.03;;;;;;;;;;6246253;22;20251;-93
2021/12/13 14:50:51;;;;;;;6.67;4.80;;;;;;;;;;6245744;22;20189;-92
2021/12/13 14:53:22;;;;;;;5.70;4.57;;;;;;;;;;6246280;22;20231;-92
2021/12/13 14:55:51;;;;;;;8.10;5.57;;;;;;;;;;6246166;22;20185;-92
2021/12/13 14:58:20;;;;;;;7.77;5.37;;;;;;;;;;6245565;22;20178;-92
2021/12/13 15:00:50;;;;;;;7.13;5.10;;;;;;;;;;6245596;22;20213;-92
2021/12/13 15:03:19;;;;;;;9.30;6.17;;;;;;;;;;6245632;22;20212;-92
2021/12/13 15:05:48;;;;;;;15.67;9.63;;;;;;;;;;6245763;22;20288;-92
2021/12/13 15:08:18;;;;;;;8.87;5.70;;;;;;;;;;6245965;22;20173;-92
2021/12/13 15:10:47;;;;;;;8.90;6.13;;;;;;;;;;6245644;22;20189;-92